CMA CGM La Boussole — A8FZ6 — position and weather

sailwx.info

Track history (hours):
 
Tides and Currents Weather Stations Pressure Air Temp Water Temp Dewpoint Dewpoint Depression Visibility Wind Speed Wind Dir Waves Ship Positions

CMA CGM La Boussole

Last reported at 2017-Jan-19 19:05 UTC. Time now 2017-Jan-20 05:52 UTC.
Position N 14°34' W 061°10'.

Length 210.1 m; beam 30.2 m; draft 11.5 m.

Type: Ship (hazmat cat A). MMSI: 636017045.

Date/timePositionNaut miles runAvg speedWind from/ knotsBaromVisibWave heightAir tempDewpointWater temp
2017-Jan-19 19:05N 14°34' W 061°10'89 5.4
2017-Jan-19 02:34N 16°02' W 061°31'1111.2
2017-Jan-19 01:33N 16°13' W 061°32'1 1.3
2017-Jan-19 00:33N 16°14' W 061°33'0 0.0
2017-Jan-18 23:33N 16°14' W 061°33'0 0.0
2017-Jan-18 22:33N 16°14' W 061°33'0 0.0
2017-Jan-18 21:33N 16°14' W 061°33'0 0.0
2017-Jan-18 20:33N 16°14' W 061°33'0 0.0
2017-Jan-18 19:33N 16°14' W 061°33'0 0.0
2017-Jan-18 18:33N 16°14' W 061°33'0 0.0
2017-Jan-18 17:33N 16°14' W 061°33'0 0.0
2017-Jan-18 16:33N 16°14' W 061°33'0 0.0
2017-Jan-18 15:33N 16°14' W 061°33'0 0.0
2017-Jan-18 14:33N 16°14' W 061°33'0 0.0
2017-Jan-18 13:33N 16°14' W 061°33'0 0.0
2017-Jan-18 12:33N 16°14' W 061°33'0 0.0
2017-Jan-18 11:33N 16°14' W 061°33'0 0.3
2017-Jan-18 10:33N 16°14' W 061°32'7 7.1
2017-Jan-18 09:33N 16°07' W 061°30'1 0.8
2017-Jan-18 08:33N 16°07' W 061°29'4 3.9
2017-Jan-18 07:33N 16°07' W 061°25'2814.1
2017-Jan-18 05:34N 16°12' W 060°56'  
2017-Jan-10 21:33N 35°57' W 005°34'3 0.3
2017-Jan-10 09:18N 35°54' W 005°34'3 1.0
2017-Jan-10 06:32N 35°57' W 005°33'2 2.2
2017-Jan-10 05:33N 35°58' W 005°31'6 6.2
2017-Jan-10 04:33N 35°60' W 005°24'7 7.2
2017-Jan-10 03:33N 36°02' W 005°15'  
Track history (hours):
 
Tides and Currents Weather Stations Pressure Air Temp Water Temp Dewpoint Dewpoint Depression Visibility Wind Speed Wind Dir Waves Ship Positions

CMA CGM La Boussole

Last reported at 2017-Jan-19 19:05 UTC. Time now 2017-Jan-20 05:52 UTC.
Position N 14°34' W 061°10'.

Length 210.1 m; beam 30.2 m; draft 11.5 m.

Type: Ship (hazmat cat A). MMSI: 636017045.

Date/timePositionNaut miles runAvg speedWind from/ knotsBaromVisibWave heightAir tempDewpointWater temp
2017-Jan-19 19:05N 14°34' W 061°10'89 5.4
2017-Jan-19 02:34N 16°02' W 061°31'1111.2
2017-Jan-19 01:33N 16°13' W 061°32'1 1.3
2017-Jan-19 00:33N 16°14' W 061°33'0 0.0
2017-Jan-18 23:33N 16°14' W 061°33'0 0.0
2017-Jan-18 22:33N 16°14' W 061°33'0 0.0
2017-Jan-18 21:33N 16°14' W 061°33'0 0.0
2017-Jan-18 20:33N 16°14' W 061°33'0 0.0
2017-Jan-18 19:33N 16°14' W 061°33'0 0.0
2017-Jan-18 18:33N 16°14' W 061°33'0 0.0
2017-Jan-18 17:33N 16°14' W 061°33'0 0.0
2017-Jan-18 16:33N 16°14' W 061°33'0 0.0
2017-Jan-18 15:33N 16°14' W 061°33'0 0.0
2017-Jan-18 14:33N 16°14' W 061°33'0 0.0
2017-Jan-18 13:33N 16°14' W 061°33'0 0.0
2017-Jan-18 12:33N 16°14' W 061°33'0 0.0
2017-Jan-18 11:33N 16°14' W 061°33'0 0.3
2017-Jan-18 10:33N 16°14' W 061°32'7 7.1
2017-Jan-18 09:33N 16°07' W 061°30'1 0.8
2017-Jan-18 08:33N 16°07' W 061°29'4 3.9
2017-Jan-18 07:33N 16°07' W 061°25'2814.1
2017-Jan-18 05:34N 16°12' W 060°56'  
2017-Jan-10 21:33N 35°57' W 005°34'3 0.3
2017-Jan-10 09:18N 35°54' W 005°34'3 1.0
2017-Jan-10 06:32N 35°57' W 005°33'2 2.2
2017-Jan-10 05:33N 35°58' W 005°31'6 6.2
2017-Jan-10 04:33N 35°60' W 005°24'7 7.2
2017-Jan-10 03:33N 36°02' W 005°15'  

Dump ship's entire track history